createdAt,value
2017-04-16T00:00:42.360Z,30.8
2017-04-16T00:01:52.281Z,30.71
2017-04-16T00:03:02.521Z,30.8
2017-04-16T00:04:12.448Z,31.38
2017-04-16T00:05:22.371Z,31.09
2017-04-16T00:06:32.628Z,30.9
2017-04-16T00:07:42.867Z,31
2017-04-16T00:08:52.800Z,30.61
2017-04-16T00:10:02.729Z,30.6
2017-04-16T00:11:12.666Z,31.09
2017-04-16T00:12:22.595Z,30.61
2017-04-16T00:13:32.836Z,31.08
2017-04-16T00:14:42.767Z,30.8
2017-04-16T00:15:53.151Z,30.8
2017-04-16T00:17:03.469Z,30.69
2017-04-16T00:18:13.709Z,31.18
2017-04-16T00:19:23.976Z,30.6
2017-04-16T00:20:34.209Z,30.4
2017-04-16T00:21:44.131Z,30.69
2017-04-16T00:22:54.366Z,30.88
2017-04-16T00:24:04.301Z,30.79
2017-04-16T00:25:14.228Z,30.98
2017-04-16T00:26:24.166Z,30.98
2017-04-16T00:27:34.404Z,31.37
2017-04-16T00:28:44.652Z,31.37
2017-04-16T00:29:54.889Z,31.56
2017-04-16T00:31:05.128Z,31.37
2017-04-16T00:32:15.368Z,31.37
2017-04-16T00:33:25.333Z,30.98
2017-04-16T00:34:35.261Z,30.98
2017-04-16T00:35:45.185Z,31.46
2017-04-16T00:36:55.108Z,31.27
2017-04-16T00:38:05.353Z,31.18
2017-04-16T00:39:14.970Z,31.27
2017-04-16T00:40:25.208Z,30.88
2017-04-16T00:41:35.130Z,30.98
2017-04-16T00:42:45.365Z,30.88
2017-04-16T00:43:55.609Z,31.08
2017-04-16T00:45:05.861Z,31.27
2017-04-16T00:46:16.272Z,30.98
2017-04-16T00:47:26.512Z,31.18
2017-04-16T00:48:36.751Z,31.37
2017-04-16T00:49:46.992Z,31.08
2017-04-16T00:50:57.226Z,30.98
2017-04-16T00:52:07.155Z,30.69
2017-04-16T00:53:17.396Z,30.88
2017-04-16T00:54:27.336Z,30.88
2017-04-16T00:55:36.984Z,30.88
2017-04-16T00:56:46.913Z,31.08
2017-04-16T00:57:56.524Z,30.6
2017-04-16T00:59:06.455Z,30.98
2017-04-16T01:00:16.695Z,30.69
2017-04-16T01:01:26.932Z,30.79
2017-04-16T01:02:37.170Z,31.27
2017-04-16T01:03:47.109Z,30.79
2017-04-16T01:04:57.349Z,30.79
2017-04-16T01:06:07.591Z,31.18
2017-04-16T01:07:17.525Z,30.98
2017-04-16T01:08:27.179Z,30.79
2017-04-16T01:09:37.415Z,30.88
2017-04-16T01:10:47.341Z,30.88
2017-04-16T01:11:57.585Z,30.6
2017-04-16T01:13:07.521Z,30.79
2017-04-16T01:14:17.759Z,30.88
2017-04-16T01:15:28.172Z,30.79
2017-04-16T01:16:38.230Z,31.18
2017-04-16T01:17:48.469Z,30.79
2017-04-16T01:18:58.093Z,30.79
2017-04-16T01:20:08.336Z,30.69
2017-04-16T01:21:18.578Z,30.6
2017-04-16T01:22:28.811Z,31.08
2017-04-16T01:23:39.073Z,30.88
2017-04-16T01:24:48.683Z,30.98
2017-04-16T01:25:58.610Z,30.6
2017-04-16T01:27:08.847Z,30.6
2017-04-16T01:28:19.088Z,30.69
2017-04-16T01:29:29.321Z,30.79
2017-04-16T01:30:38.935Z,30.69
2017-04-16T01:31:49.179Z,30.98
2017-04-16T01:32:58.794Z,30.69
2017-04-16T01:34:09.046Z,30.5
2017-04-16T01:35:19.291Z,30.31
2017-04-16T01:36:29.528Z,30.79
2017-04-16T01:37:39.455Z,30.5
2017-04-16T01:38:49.695Z,30.02
2017-04-16T01:39:59.951Z,30.69
2017-04-16T01:41:10.210Z,30.5
2017-04-16T01:42:20.141Z,31.37
2017-04-16T01:43:30.391Z,30.4
2017-04-16T01:44:39.696Z,30.21
2017-04-16T01:45:49.943Z,30.5
2017-04-16T01:47:00.188Z,30.21
2017-04-16T01:48:10.117Z,30.69
2017-04-16T01:49:20.362Z,30.11
2017-04-16T01:50:30.602Z,30.11
2017-04-16T01:51:40.532Z,30.5
2017-04-16T01:52:50.461Z,30.21
2017-04-16T01:54:00.713Z,30.69
2017-04-16T01:55:10.955Z,30.4
2017-04-16T01:56:20.881Z,30.5
2017-04-16T01:57:30.502Z,30.4
2017-04-16T01:58:40.434Z,30.4
2017-04-16T01:59:50.687Z,30.11
2017-04-16T02:01:00.618Z,30.31
2017-04-16T02:02:10.859Z,29.93
2017-04-16T02:03:21.098Z,30.02
2017-04-16T02:04:31.341Z,30.11
2017-04-16T02:05:40.956Z,30.31
2017-04-16T02:06:50.565Z,30.5
2017-04-16T02:08:00.803Z,30.4
2017-04-16T02:09:10.742Z,30.6
2017-04-16T02:10:20.664Z,30.02
2017-04-16T02:11:29.968Z,30.5
2017-04-16T02:12:40.240Z,30.4
2017-04-16T02:13:50.488Z,30.6
2017-04-16T02:15:00.739Z,30.5
2017-04-16T02:16:10.685Z,30.21
2017-04-16T02:17:20.930Z,30.21
2017-04-16T02:18:31.165Z,30.31
2017-04-16T02:19:40.784Z,30.11
2017-04-16T02:20:51.021Z,29.93
2017-04-16T02:22:01.261Z,30.02
2017-04-16T02:23:10.902Z,30.31
2017-04-16T02:24:20.826Z,30.02
2017-04-16T02:25:31.062Z,30.21
2017-04-16T02:26:40.982Z,29.93
2017-04-16T02:27:51.221Z,29.93
2017-04-16T02:29:01.471Z,30.21
2017-04-16T02:30:11.711Z,30.11
2017-04-16T02:31:21.949Z,30.31
2017-04-16T02:32:32.179Z,29.54
2017-04-16T02:33:42.420Z,30.11
2017-04-16T02:34:52.665Z,30.02
2017-04-16T02:36:02.910Z,30.4
2017-04-16T02:37:12.837Z,30.11
2017-04-16T02:38:22.765Z,30.21
2017-04-16T02:39:33.015Z,30.21
2017-04-16T02:40:43.021Z,30.21
2017-04-16T02:41:53.265Z,30.02
2017-04-16T02:43:03.502Z,30.21
2017-04-16T02:44:13.748Z,30.4
2017-04-16T02:45:23.994Z,30.21
2017-04-16T02:46:33.919Z,30.02
2017-04-16T02:47:44.153Z,30.21
2017-04-16T02:48:54.389Z,30.02
2017-04-16T02:50:04.632Z,30.02
2017-04-16T02:51:14.246Z,29.54
2017-04-16T02:52:24.161Z,30.31
2017-04-16T02:53:34.091Z,30.4
2017-04-16T02:54:44.336Z,29.83
2017-04-16T02:55:54.265Z,30.02
2017-04-16T02:57:04.497Z,30.21
2017-04-16T02:58:14.423Z,29.93
2017-04-16T02:59:24.668Z,30.11
2017-04-16T03:00:34.915Z,29.93
2017-04-16T03:01:45.153Z,30.31
2017-04-16T03:02:55.078Z,30.02
2017-04-16T03:04:05.322Z,30.21
2017-04-16T03:05:15.256Z,30.5
2017-04-16T03:06:24.871Z,29.93
2017-04-16T03:07:35.111Z,29.44
2017-04-16T03:08:45.358Z,29.83
2017-04-16T03:09:55.605Z,30.5
2017-04-16T03:11:05.525Z,30.21
2017-04-16T03:12:15.763Z,30.4
2017-04-16T03:13:25.687Z,30.02
2017-04-16T03:14:35.619Z,30.11
2017-04-16T03:15:45.232Z,30.02
2017-04-16T03:16:55.474Z,30.5
2017-04-16T03:18:05.721Z,30.11
2017-04-16T03:19:16.134Z,29.44
2017-04-16T03:20:26.060Z,30.02
2017-04-16T03:21:35.989Z,30.31
2017-04-16T03:22:46.235Z,30.11
2017-04-16T03:23:56.477Z,30.21
2017-04-16T03:25:06.718Z,30.11
2017-04-16T03:26:16.956Z,30.02
2017-04-16T03:27:27.198Z,30.4
2017-04-16T03:28:37.437Z,30.1
2017-04-16T03:29:47.363Z,29.44
2017-04-16T03:30:57.609Z,30.31
2017-04-16T03:32:07.858Z,30.1
2017-04-16T03:33:17.786Z,30.02
2017-04-16T03:34:28.031Z,30.21
2017-04-16T03:35:38.300Z,30.02
2017-04-16T03:36:47.922Z,30.4
2017-04-16T03:37:58.162Z,30.4
2017-04-16T03:39:08.402Z,30.21
2017-04-16T03:40:18.329Z,30.31
2017-04-16T03:41:28.248Z,30.11
2017-04-16T03:42:38.524Z,30.21
2017-04-16T03:43:48.774Z,30.5
2017-04-16T03:44:59.019Z,30.5
2017-04-16T03:46:08.941Z,30.21
2017-04-16T03:47:19.186Z,30.21
2017-04-16T03:48:29.458Z,30.4
2017-04-16T03:49:39.702Z,30.11
2017-04-16T03:50:49.854Z,30.21
2017-04-16T03:52:00.115Z,29.83
2017-04-16T03:53:10.361Z,30.4
2017-04-16T03:54:20.609Z,30.39
2017-04-16T03:55:30.858Z,29.63
2017-04-16T03:56:40.791Z,29.93
2017-04-16T03:57:50.729Z,29.83
2017-04-16T03:59:00.971Z,29.83
2017-04-16T04:00:10.900Z,30.31
2017-04-16T04:01:21.146Z,30.21
2017-04-16T04:02:31.389Z,30.02
2017-04-16T04:03:41.632Z,29.93
2017-04-16T04:04:51.933Z,30.02
2017-04-16T04:06:01.855Z,30.4
2017-04-16T04:07:12.091Z,30.4
2017-04-16T04:08:22.019Z,30.21
2017-04-16T04:09:32.266Z,30.21
2017-04-16T04:10:42.196Z,30.21
2017-04-16T04:11:52.440Z,30.02
2017-04-16T04:13:02.694Z,30.69
2017-04-16T04:14:12.945Z,30.11
2017-04-16T04:15:23.193Z,30.11
2017-04-16T04:16:33.432Z,30.11
2017-04-16T04:17:43.363Z,30.19
2017-04-16T04:18:53.294Z,30.11
2017-04-16T04:20:03.272Z,30.21
2017-04-16T04:21:12.933Z,30.4
2017-04-16T04:22:23.175Z,30.21
2017-04-16T04:23:33.484Z,30.11
2017-04-16T04:24:43.459Z,30
2017-04-16T04:25:53.804Z,30.1
2017-04-16T04:27:03.743Z,30.19
2017-04-16T04:28:13.664Z,30.21
2017-04-16T04:29:23.590Z,30.29
2017-04-16T04:30:33.829Z,30.21
2017-04-16T04:31:43.450Z,30.58
2017-04-16T04:32:53.377Z,30.29
2017-04-16T04:34:03.622Z,30
2017-04-16T04:35:13.873Z,30.39
2017-04-16T04:36:24.111Z,30.19
2017-04-16T04:37:34.344Z,30
2017-04-16T04:38:44.587Z,30.39
2017-04-16T04:39:54.839Z,30
2017-04-16T04:41:04.789Z,30.39
2017-04-16T04:42:14.712Z,30.19
2017-04-16T04:43:24.641Z,30.19
2017-04-16T04:44:34.578Z,30.39
2017-04-16T04:45:44.815Z,30
2017-04-16T04:46:54.742Z,30.19
2017-04-16T04:48:04.671Z,30.49
2017-04-16T04:49:14.911Z,30
2017-04-16T04:50:24.842Z,30.39
2017-04-16T04:51:35.076Z,30.58
2017-04-16T04:52:45.025Z,30
2017-04-16T04:53:55.267Z,30.29
2017-04-16T04:55:05.511Z,30.1
2017-04-16T04:56:15.757Z,30.1
2017-04-16T04:57:25.782Z,30.39
2017-04-16T04:58:35.713Z,30.39
2017-04-16T04:59:45.953Z,30.39
2017-04-16T05:00:56.224Z,30.1
2017-04-16T05:02:06.175Z,30.49
2017-04-16T05:03:16.100Z,30.39
2017-04-16T05:04:25.403Z,30.29
2017-04-16T05:05:35.337Z,30.1
2017-04-16T05:06:45.273Z,30.49
2017-04-16T05:07:55.209Z,30.29
2017-04-16T05:09:05.448Z,30.19
2017-04-16T05:10:15.686Z,30.58
2017-04-16T05:11:25.927Z,30.29
2017-04-16T05:12:35.543Z,30.19
2017-04-16T05:13:45.477Z,30.39
2017-04-16T05:14:55.092Z,30.19
2017-04-16T05:16:05.330Z,30.19
2017-04-16T05:17:14.947Z,30
2017-04-16T05:18:24.877Z,30.49
2017-04-16T05:19:35.118Z,30.29
2017-04-16T05:20:45.059Z,29.91
2017-04-16T05:21:54.997Z,30.39
2017-04-16T05:23:05.238Z,30.19
2017-04-16T05:24:14.857Z,30.29
2017-04-16T05:25:25.133Z,30.49
2017-04-16T05:26:35.377Z,30.39
2017-04-16T05:27:45.304Z,30.19
2017-04-16T05:28:55.228Z,30.29
2017-04-16T05:30:05.472Z,30.49
2017-04-16T05:31:15.138Z,30.1
2017-04-16T05:32:25.383Z,30.29
2017-04-16T05:33:35.315Z,30.1
2017-04-16T05:34:45.448Z,30.19
2017-04-16T05:35:55.556Z,29.91
2017-04-16T05:37:05.480Z,30.19
2017-04-16T05:38:15.407Z,30.39
2017-04-16T05:39:25.682Z,30.29
2017-04-16T05:40:35.606Z,30.1
2017-04-16T05:41:45.845Z,30.19
2017-04-16T05:42:55.772Z,30.39
2017-04-16T05:44:05.399Z,30.1
2017-04-16T05:45:15.641Z,30.29
2017-04-16T05:46:25.905Z,30.29
2017-04-16T05:47:35.515Z,29.91
2017-04-16T05:48:45.440Z,30.19
2017-04-16T05:49:55.690Z,30.29
2017-04-16T05:51:05.943Z,30.58
2017-04-16T05:52:16.180Z,30.19
2017-04-16T05:53:26.130Z,30.19
2017-04-16T05:54:36.364Z,30.19
2017-04-16T05:55:46.607Z,30.1
2017-04-16T05:56:56.528Z,30.11
2017-04-16T05:58:06.777Z,30.19
2017-04-16T05:59:17.015Z,30.39
2017-04-16T06:00:27.261Z,30.29
2017-04-16T06:01:37.501Z,30.19
2017-04-16T06:02:47.749Z,30.02
2017-04-16T06:03:57.982Z,30.21
2017-04-16T06:05:08.223Z,30.4
2017-04-16T06:06:18.465Z,30.21
2017-04-16T06:07:28.697Z,30.11
2017-04-16T06:08:38.621Z,29.73
2017-04-16T06:09:48.910Z,29.54
2017-04-16T06:10:59.074Z,29.93
2017-04-16T06:12:09.089Z,30.02
2017-04-16T06:13:19.082Z,30.02
2017-04-16T06:14:29.327Z,29.83
2017-04-16T06:15:39.568Z,30.02
2017-04-16T06:17:21.568Z,30.11
2017-04-16T06:18:30.866Z,29.44
2017-04-16T06:19:40.798Z,30
2017-04-16T06:20:51.042Z,29.91
2017-04-16T06:22:01.276Z,30.11
2017-04-16T06:23:11.209Z,30.4
2017-04-16T06:24:21.461Z,30.4
2017-04-16T06:25:31.708Z,30.31
2017-04-16T06:26:41.342Z,29.73
2017-04-16T06:27:51.672Z,30.31
2017-04-16T06:29:02.056Z,30.02
2017-04-16T06:30:12.308Z,29.35
2017-04-16T06:31:22.242Z,30.02
2017-04-16T06:32:32.518Z,29.83
2017-04-16T06:33:42.456Z,29.93
2017-04-16T06:34:52.394Z,30.02
2017-04-16T06:36:02.623Z,30.11
2017-04-16T06:37:12.607Z,30.11
2017-04-16T06:38:23.077Z,30.4
2017-04-16T06:39:32.878Z,30.02
2017-04-16T06:40:42.507Z,29.83
2017-04-16T06:41:52.747Z,29.63
2017-04-16T06:43:03.021Z,29.63
2017-04-16T06:44:12.958Z,30.02
2017-04-16T06:45:23.201Z,30.02
2017-04-16T06:46:33.453Z,30.31
2017-04-16T06:47:43.700Z,30.31
2017-04-16T06:48:53.633Z,30.4
2017-04-16T06:50:03.913Z,30.21
2017-04-16T06:51:13.535Z,30.11
2017-04-16T06:52:23.775Z,30.21
2017-04-16T06:53:33.715Z,30.21
2017-04-16T06:54:43.689Z,30.11
2017-04-16T06:55:53.610Z,30.31
2017-04-16T06:57:03.855Z,29.93
2017-04-16T06:58:13.783Z,30.31
2017-04-16T06:59:24.024Z,30.4
2017-04-16T07:00:34.280Z,30.4
2017-04-16T07:01:44.527Z,30.21
2017-04-16T07:02:54.454Z,30.4
2017-04-16T07:04:04.069Z,30.11
2017-04-16T07:05:14.314Z,30.31
2017-04-16T07:06:24.244Z,30.4
2017-04-16T07:07:33.858Z,30.21
2017-04-16T07:08:44.128Z,30.11
2017-04-16T07:09:54.398Z,30.21
2017-04-16T07:11:04.011Z,30.21
2017-04-16T07:12:13.310Z,30.69
2017-04-16T07:13:23.557Z,30.6
2017-04-16T07:14:33.792Z,30.6
2017-04-16T07:15:43.715Z,30.13
2017-04-16T07:16:53.655Z,30.61
2017-04-16T07:18:03.903Z,30.22
2017-04-16T07:19:13.834Z,30.32
2017-04-16T07:20:24.078Z,30.4
2017-04-16T07:21:34.102Z,29.54
2017-04-16T07:22:44.031Z,29.83
2017-04-16T07:23:54.266Z,29.93
2017-04-16T07:25:03.881Z,29.93
2017-04-16T07:26:14.125Z,30.31
2017-04-16T07:27:24.369Z,30.4
2017-04-16T07:28:34.612Z,30.02
2017-04-16T07:29:44.859Z,29.73
2017-04-16T07:30:55.105Z,30.4
2017-04-16T07:32:05.030Z,29.93
2017-04-16T07:33:15.275Z,30.4
2017-04-16T07:34:25.525Z,30.21
2017-04-16T07:35:35.769Z,29.54
2017-04-16T07:36:45.693Z,29.93
2017-04-16T07:37:55.934Z,29.63
2017-04-16T07:39:06.180Z,30.02
2017-04-16T07:40:16.109Z,30.02
2017-04-16T07:41:26.343Z,30.02
2017-04-16T07:42:36.593Z,29.83
2017-04-16T07:43:46.526Z,30.11
2017-04-16T07:44:56.767Z,29.63
2017-04-16T07:46:06.071Z,29.35
2017-04-16T07:47:16.315Z,29.44
2017-04-16T07:48:26.249Z,30.02
2017-04-16T07:49:36.481Z,30.02
2017-04-16T07:50:46.721Z,30.11
2017-04-16T07:51:56.653Z,30.02
2017-04-16T07:53:06.573Z,30.02
2017-04-16T07:54:16.820Z,30.11
2017-04-16T07:55:26.744Z,29.44
2017-04-16T07:56:36.986Z,30.04
2017-04-16T07:57:46.596Z,29.63
2017-04-16T07:58:56.528Z,30.11
2017-04-16T08:00:06.523Z,29.55
2017-04-16T08:01:16.732Z,29.24
2017-04-16T08:02:26.695Z,29.32
2017-04-16T08:03:36.980Z,30.18
2017-04-16T08:04:47.229Z,30.28
2017-04-16T08:05:57.486Z,29.43
2017-04-16T08:07:07.418Z,30.11
2017-04-16T08:08:17.658Z,29.83
2017-04-16T08:09:27.890Z,30.4
2017-04-16T08:10:37.808Z,30.02
2017-04-16T08:11:47.425Z,30.21
2017-04-16T08:12:57.673Z,30.31
2017-04-16T08:14:07.917Z,30.13
2017-04-16T08:15:18.156Z,30.52
2017-04-16T08:16:28.088Z,30.61
2017-04-16T08:17:38.039Z,30.32
2017-04-16T08:18:47.658Z,30.42
2017-04-16T08:19:57.898Z,30.32
2017-04-16T08:21:07.827Z,30.32
2017-04-16T08:22:18.061Z,30.61
2017-04-16T08:23:28.305Z,30.04
2017-04-16T08:24:38.551Z,30.42
2017-04-16T08:25:48.787Z,30.52
2017-04-16T08:26:59.025Z,30.61
2017-04-16T08:28:09.262Z,30.8
2017-04-16T08:29:18.917Z,30.8
2017-04-16T08:30:29.167Z,31.19
2017-04-16T08:31:39.094Z,30.9
2017-04-16T08:32:48.711Z,30.8
2017-04-16T08:33:58.648Z,31.19
2017-04-16T08:35:08.898Z,30.71
2017-04-16T08:36:18.829Z,31.09
2017-04-16T08:37:29.078Z,31.29
2017-04-16T08:38:39.005Z,31.38
2017-04-16T08:39:48.932Z,31.29
2017-04-16T08:40:59.391Z,31.29
2017-04-16T08:42:09.642Z,31.57
2017-04-16T08:43:19.688Z,31.29
2017-04-16T08:44:29.308Z,31.48
2017-04-16T08:45:39.230Z,31.59
2017-04-16T08:46:49.257Z,31.98
2017-04-16T08:47:59.209Z,32.06
2017-04-16T08:49:09.483Z,32.06
2017-04-16T08:50:19.802Z,31.87
2017-04-16T08:51:30.067Z,32.25
2017-04-16T08:52:40.307Z,32.06
2017-04-16T08:53:50.554Z,32.65
2017-04-16T08:55:00.805Z,32.44
2017-04-16T08:56:10.729Z,32.64
2017-04-16T08:57:20.652Z,32.36
2017-04-16T08:58:30.904Z,32.07
2017-04-16T08:59:40.836Z,32.36
2017-04-16T09:00:51.089Z,32.56
2017-04-16T09:02:01.335Z,32.56
2017-04-16T09:03:10.954Z,32.75
2017-04-16T09:04:21.204Z,32.75
2017-04-16T09:05:31.444Z,33.03
2017-04-16T09:06:41.679Z,32.65
2017-04-16T09:07:51.931Z,33.13
2017-04-16T09:09:02.175Z,33.03
2017-04-16T09:10:12.100Z,33.13
2017-04-16T09:11:22.026Z,33.13
2017-04-16T09:12:31.641Z,33.23
2017-04-16T09:13:41.568Z,33.13
2017-04-16T09:14:51.810Z,33.13
2017-04-16T09:16:01.425Z,33.03
2017-04-16T09:17:11.662Z,33.81
2017-04-16T09:18:21.594Z,33.33
2017-04-16T09:19:31.581Z,33.61
2017-04-16T09:20:41.516Z,30.63
2017-04-16T09:21:51.128Z,30.21
2017-04-16T09:23:00.744Z,29.43
2017-04-16T09:24:10.876Z,30.36
2017-04-16T09:25:20.751Z,29.4
2017-04-16T09:26:30.730Z,29.38
2017-04-16T09:27:40.657Z,29.38
2017-04-16T09:28:50.903Z,30.05
2017-04-16T09:30:00.528Z,29.96
2017-04-16T09:31:10.140Z,29.19
2017-04-16T09:32:20.377Z,30.82
2017-04-16T09:33:30.318Z,31.51
2017-04-16T09:34:40.251Z,32.59
2017-04-16T09:35:50.173Z,33.08
2017-04-16T09:37:00.419Z,33.37
2017-04-16T09:38:10.346Z,33.1
2017-04-16T09:39:20.590Z,33.2
2017-04-16T09:40:30.519Z,33.5
2017-04-16T09:41:40.446Z,33.31
2017-04-16T09:42:50.688Z,34.37
2017-04-16T09:44:00.926Z,34.37
2017-04-16T09:45:11.176Z,34.84
2017-04-16T09:46:21.106Z,34.37
2017-04-16T09:47:31.036Z,30.52
2017-04-16T09:48:41.285Z,28.67
2017-04-16T09:49:51.531Z,29.04
2017-04-16T09:51:01.788Z,28.26
2017-04-16T09:52:11.711Z,28.74
2017-04-16T09:53:21.903Z,30.08
2017-04-16T09:54:32.810Z,32.1
2017-04-16T09:55:43.990Z,32.03
2017-04-16T09:56:55.416Z,32.33
2017-04-16T09:58:06.598Z,32.33
2017-04-16T09:59:17.510Z,32.64
2017-04-16T10:00:28.365Z,32.73
2017-04-16T10:01:39.179Z,33.21
2017-04-16T10:02:49.982Z,33.12
2017-04-16T10:04:01.180Z,33.12
2017-04-16T10:05:12.388Z,33.12
2017-04-16T10:06:23.303Z,33.33
2017-04-16T10:07:33.921Z,33.31
2017-04-16T10:08:44.754Z,33.5
2017-04-16T10:09:55.961Z,33.71
2017-04-16T10:11:07.074Z,33.59
2017-04-16T10:12:18.521Z,33.91
2017-04-16T10:13:29.718Z,33.4
2017-04-16T10:14:40.176Z,34.09
2017-04-16T10:15:51.373Z,33.89
2017-04-16T10:17:01.827Z,34.19
2017-04-16T10:18:12.722Z,34.29
2017-04-16T10:19:24.516Z,34.19
2017-04-16T10:20:34.960Z,34.38
2017-04-16T10:21:46.133Z,34.29
2017-04-16T10:22:57.244Z,34.19
2017-04-16T10:24:08.559Z,34.58
2017-04-16T10:25:18.967Z,34.67
2017-04-16T10:26:29.583Z,34.86
2017-04-16T10:27:40.172Z,36.02
2017-04-16T10:28:50.763Z,35.73
2017-04-16T10:30:01.767Z,34.67
2017-04-16T10:31:12.721Z,35.16
2017-04-16T10:32:23.367Z,35.25
2017-04-16T10:33:34.026Z,34.58
2017-04-16T10:34:44.703Z,34.29
2017-04-16T10:35:55.379Z,34.67
2017-04-16T10:37:05.838Z,34.86
2017-04-16T10:38:16.287Z,35.73
2017-04-16T10:39:27.105Z,36.21
2017-04-16T10:40:37.831Z,36.52
2017-04-16T10:41:47.686Z,36.23
2017-04-16T10:42:58.110Z,36.13
2017-04-16T10:44:08.045Z,35.27
2017-04-16T10:45:17.976Z,35.46
2017-04-16T10:46:27.905Z,36.02
2017-04-16T10:47:37.518Z,35.16
2017-04-16T10:48:47.759Z,35.64
2017-04-16T10:49:58.010Z,35.64
2017-04-16T10:51:08.260Z,35.16
2017-04-16T10:52:18.210Z,36.31
2017-04-16T10:53:28.456Z,35.93
2017-04-16T10:54:38.722Z,35.75
2017-04-16T10:55:48.656Z,35.85
2017-04-16T10:56:58.904Z,36.11
2017-04-16T10:58:08.841Z,36.11
2017-04-16T10:59:19.105Z,35.93
2017-04-16T11:00:29.034Z,36.13
2017-04-16T11:01:39.286Z,36.61
2017-04-16T11:02:49.538Z,36.51
2017-04-16T11:03:59.792Z,36.52
2017-04-16T11:05:10.032Z,36.52
2017-04-16T11:06:19.953Z,36.71
2017-04-16T11:07:29.877Z,37.18
2017-04-16T11:08:40.116Z,37.29
2017-04-16T11:09:50.043Z,37.1
2017-04-16T11:11:00.292Z,37.39
2017-04-16T11:12:10.528Z,37.27
2017-04-16T11:13:20.770Z,37.29
2017-04-16T11:14:30.698Z,37.37
2017-04-16T11:15:40.631Z,37.27
2017-04-16T11:16:50.875Z,37.46
2017-04-16T11:18:01.125Z,37.85
2017-04-16T11:19:11.063Z,37.76
2017-04-16T11:20:20.673Z,37.76
2017-04-16T11:21:30.943Z,37.77
2017-04-16T11:22:41.182Z,37.1
2017-04-16T11:23:51.438Z,37.87
2017-04-16T11:25:01.801Z,37.48
2017-04-16T11:26:12.042Z,37.58
2017-04-16T11:27:22.289Z,37.68
2017-04-16T11:28:32.530Z,37.68
2017-04-16T11:29:42.150Z,37.85
2017-04-16T11:30:52.783Z,37.77
2017-04-16T11:32:03.045Z,37.87
2017-04-16T11:33:13.297Z,37.96
2017-04-16T11:34:23.539Z,37.96
2017-04-16T11:35:33.823Z,38.45
2017-04-16T11:36:43.741Z,38.16
2017-04-16T11:37:53.671Z,38.06
2017-04-16T11:39:03.599Z,37.96
2017-04-16T11:40:13.560Z,38.35
2017-04-16T11:41:23.795Z,38.06
2017-04-16T11:42:33.725Z,38.45
2017-04-16T11:43:43.973Z,38.26
2017-04-16T11:44:54.217Z,39.22
2017-04-16T11:46:04.150Z,39.03
2017-04-16T11:47:14.096Z,38.74
2017-04-16T11:48:24.338Z,38.64
2017-04-16T11:49:34.274Z,38.74
2017-04-16T11:50:43.570Z,39.03
2017-04-16T11:51:53.811Z,39.12
2017-04-16T11:53:03.744Z,39.22
2017-04-16T11:54:13.984Z,38.93
2017-04-16T11:55:24.239Z,39.7
2017-04-16T11:56:34.175Z,39.41
2017-04-16T11:57:44.428Z,39.12
2017-04-16T11:58:53.737Z,38.83
2017-04-16T12:00:03.682Z,38.64
2017-04-16T12:01:13.616Z,38.93
2017-04-16T12:02:23.230Z,38.74
2017-04-16T12:03:33.498Z,39.03
2017-04-16T12:04:43.749Z,39.22
2017-04-16T12:05:53.989Z,39.03
2017-04-16T12:07:03.923Z,38.93
2017-04-16T12:08:13.858Z,38.93
2017-04-16T12:09:24.100Z,38.93
2017-04-16T12:10:33.708Z,38.83
2017-04-16T12:11:43.635Z,39.22
2017-04-16T12:12:53.569Z,39.41
2017-04-16T12:14:03.500Z,39.12
2017-04-16T12:15:13.424Z,38.93
2017-04-16T12:16:23.347Z,39.41
2017-04-16T12:17:32.966Z,38.83
2017-04-16T12:18:42.893Z,39.31
2017-04-16T12:19:52.834Z,39.22
2017-04-16T12:21:03.079Z,39.12
2017-04-16T12:22:12.694Z,39.03
2017-04-16T12:23:22.633Z,39.12
2017-04-16T12:24:32.871Z,39.22
2017-04-16T12:25:43.107Z,39.22
2017-04-16T12:26:53.351Z,39.31
2017-04-16T12:28:03.593Z,39.31
2017-04-16T12:29:13.833Z,39.31
2017-04-16T12:30:23.764Z,39.12
2017-04-16T12:31:33.999Z,38.93
2017-04-16T12:32:43.938Z,39.03
2017-04-16T12:33:54.195Z,38.93
2017-04-16T12:35:04.438Z,39.03
2017-04-16T12:36:14.373Z,39.31
2017-04-16T12:37:24.618Z,39.61
2017-04-16T12:38:34.856Z,39.7
2017-04-16T12:39:44.826Z,39.03
2017-04-16T12:40:55.154Z,38.93
2017-04-16T12:42:05.415Z,39.22
2017-04-16T12:43:15.342Z,39.22
2017-04-16T12:44:25.281Z,39.22
2017-04-16T12:45:35.522Z,39.51
2017-04-16T12:46:45.457Z,39.03
2017-04-16T12:47:55.391Z,38.74
2017-04-16T12:49:05.020Z,39.03
2017-04-16T12:50:14.942Z,39.22
2017-04-16T12:51:25.182Z,37.77
2017-04-16T12:52:35.428Z,37.01
2017-04-16T12:53:45.371Z,33.23
2017-04-16T12:54:54.990Z,34.14
2017-04-16T12:56:05.226Z,35.45
2017-04-16T12:57:15.464Z,35.28
2017-04-16T12:58:25.403Z,35.58
2017-04-16T12:59:35.343Z,36.56
2017-04-16T13:00:45.275Z,37.14
2017-04-16T13:01:55.208Z,38.02
2017-04-16T13:03:04.824Z,38.02
2017-04-16T13:04:14.758Z,38.41
2017-04-16T13:05:25.006Z,38.51
2017-04-16T13:06:35.259Z,38.31
2017-04-16T13:07:45.203Z,38.62
2017-04-16T13:08:55.137Z,38.51
2017-04-16T13:10:05.380Z,38.43
2017-04-16T13:11:15.616Z,38.43
2017-04-16T13:12:25.544Z,38.33
2017-04-16T13:13:35.850Z,38.43
2017-04-16T13:14:46.168Z,38.62
2017-04-16T13:15:56.410Z,38.43
2017-04-16T13:17:06.647Z,38.53
2017-04-16T13:18:16.265Z,38.53
2017-04-16T13:19:26.500Z,38.43
2017-04-16T13:20:36.436Z,38.72
2017-04-16T13:21:46.674Z,38.43
2017-04-16T13:22:56.914Z,38.72
2017-04-16T13:24:06.858Z,38.62
2017-04-16T13:25:17.109Z,38.53
2017-04-16T13:26:27.041Z,38.62
2017-04-16T13:27:36.969Z,38.81
2017-04-16T13:28:47.212Z,38.81
2017-04-16T13:29:57.140Z,38.53
2017-04-16T13:31:07.387Z,38.72
2017-04-16T13:32:17.620Z,38.81
2017-04-16T13:33:27.860Z,38.72
2017-04-16T13:34:37.796Z,38.53
2017-04-16T13:35:48.045Z,38.62
2017-04-16T13:36:58.287Z,38.43
2017-04-16T13:38:08.547Z,38.62
2017-04-16T13:39:18.792Z,38.43
2017-04-16T13:40:28.720Z,38.62
2017-04-16T13:41:38.957Z,38.81
2017-04-16T13:42:48.893Z,38.62
2017-04-16T13:43:58.827Z,38.91
2017-04-16T13:45:08.755Z,38.72
2017-04-16T13:46:18.683Z,38.81
2017-04-16T13:47:28.922Z,38.72
2017-04-16T13:48:39.175Z,38.62
2017-04-16T13:49:49.692Z,38.53
2017-04-16T13:50:59.701Z,38.33
2017-04-16T13:52:09.943Z,38.53
2017-04-16T13:53:19.560Z,38.33
2017-04-16T13:54:29.183Z,38.53
2017-04-16T13:55:39.426Z,38.43
2017-04-16T13:56:49.355Z,38.24
2017-04-16T13:57:59.595Z,38.43
2017-04-16T13:59:09.524Z,38.72
2017-04-16T14:00:19.458Z,38.24
2017-04-16T14:01:29.699Z,38.53
2017-04-16T14:02:39.941Z,38.72
2017-04-16T14:03:49.871Z,38.43
2017-04-16T14:04:59.804Z,38.43
2017-04-16T14:06:10.047Z,38.26
2017-04-16T14:07:19.984Z,38.14
2017-04-16T14:08:30.227Z,38.54
2017-04-16T14:09:40.152Z,38.35
2017-04-16T14:10:50.401Z,38.45
2017-04-16T14:12:00.015Z,38.74
2017-04-16T14:13:10.262Z,39.01
2017-04-16T14:14:20.196Z,38.83
2017-04-16T14:15:30.120Z,38.74
2017-04-16T14:16:40.062Z,38.93
2017-04-16T14:17:49.992Z,39.03
2017-04-16T14:18:59.993Z,38.83
2017-04-16T14:20:09.931Z,38.62
2017-04-16T14:21:19.856Z,38.93
2017-04-16T14:22:29.157Z,38.64
2017-04-16T14:23:39.117Z,39.2
2017-04-16T14:24:49.046Z,38.93
2017-04-16T14:25:58.966Z,38.64
2017-04-16T14:27:08.893Z,38.83
2017-04-16T14:28:18.882Z,38.91
2017-04-16T14:29:28.507Z,38.93
2017-04-16T14:30:38.508Z,38.83
2017-04-16T14:31:48.831Z,39.12
2017-04-16T14:32:58.179Z,39.22
2017-04-16T14:34:08.104Z,39.12
2017-04-16T14:35:18.341Z,38.83
2017-04-16T14:36:28.286Z,39.12
2017-04-16T14:37:38.539Z,38.93
2017-04-16T14:38:48.788Z,39.03
2017-04-16T14:39:58.726Z,39.22
2017-04-16T14:41:08.341Z,39.01
2017-04-16T14:42:18.578Z,39.03
2017-04-16T14:43:28.511Z,39.12
2017-04-16T14:44:38.749Z,39.03
2017-04-16T14:45:48.984Z,39.03
2017-04-16T14:46:59.263Z,39.61
2017-04-16T14:48:09.196Z,39.03
2017-04-16T14:49:19.443Z,39.31
2017-04-16T14:50:29.682Z,39.61
2017-04-16T14:51:39.603Z,39.39
2017-04-16T14:52:49.839Z,39.51
2017-04-16T14:54:00.087Z,39.41
2017-04-16T14:55:10.012Z,39.68
2017-04-16T14:56:20.254Z,39.41
2017-04-16T14:57:30.493Z,39.31
2017-04-16T14:58:40.741Z,39.41
2017-04-16T14:59:50.987Z,39.22
2017-04-16T15:01:01.234Z,39.7
2017-04-16T15:02:11.636Z,39.51
2017-04-16T15:03:21.885Z,39.7
2017-04-16T15:04:31.810Z,39.61
2017-04-16T15:05:41.736Z,39.79
2017-04-16T15:06:52.042Z,39.41
2017-04-16T15:08:02.284Z,39.41